Time;durP1;ratioP1;P1;durP2;ratioP2;P2;SDS_P1;SDS_P2;PMS_P1;PMS_P2;Temp;Humidity;BMP_temperature;BMP_pressure;BME280_temperature;BME280_humidity;BME280_pressure;Samples;Min_cycle;Max_cycle;Signal;HPM_P1;HPM_P2
2022/05/07 00:02:16;;;;;;;2.97;2.77;;;;;;;;;;12490239;28;20049;-82
2022/05/07 00:08:17;;;;;;;3.47;2.88;;;;;;;;;;12493362;28;20041;-82
2022/05/07 00:14:19;;;;;;;3.40;3.13;;;;;;;;;;12492873;28;20529;-82
2022/05/07 00:20:21;;;;;;;2.95;2.75;;;;;;;;;;12492493;28;20061;-82
2022/05/07 00:26:23;;;;;;;3.60;2.87;;;;;;;;;;12492628;28;20049;-82
2022/05/07 00:32:25;;;;;;;3.37;3.07;;;;;;;;;;12508510;28;20382;-82
2022/05/07 00:38:27;;;;;;;4.03;3.72;;;;;;;;;;12476915;28;20033;-82
2022/05/07 00:44:29;;;;;;;4.68;4.25;;;;;;;;;;12472854;28;20409;-82
2022/05/07 00:56:52;;;;;;;5.03;4.55;;;;;;;;;;12482798;28;20045;-82
2022/05/07 01:02:54;;;;;;;4.25;3.85;;;;;;;;;;12500086;28;20040;-82
2022/05/07 01:08:56;;;;;;;4.53;4.13;;;;;;;;;;12481851;28;20493;-82
2022/05/07 01:14:58;;;;;;;4.93;4.53;;;;;;;;;;12480474;28;20060;-82
2022/05/07 01:21:28;;;;;;;4.70;3.90;;;;;;;;;;12465743;28;20045;-82
2022/05/07 01:27:32;;;;;;;4.30;3.90;;;;;;;;;;12498204;28;20049;-82
2022/05/07 01:33:34;;;;;;;5.27;4.10;;;;;;;;;;12480716;28;20040;-82
2022/05/07 01:39:40;;;;;;;3.63;3.33;;;;;;;;;;12480951;28;20037;-82
2022/05/07 01:45:41;;;;;;;5.30;4.23;;;;;;;;;;12498000;28;20038;-82
2022/05/07 01:51:43;;;;;;;4.83;4.43;;;;;;;;;;12480135;28;20044;-82
2022/05/07 01:57:46;;;;;;;5.25;4.75;;;;;;;;;;12479676;28;20272;-82
2022/05/07 02:03:48;;;;;;;4.93;4.20;;;;;;;;;;12479647;28;20041;-82
2022/05/07 02:09:55;;;;;;;4.57;4.13;;;;;;;;;;12479939;28;20037;-82
2022/05/07 02:15:57;;;;;;;4.67;4.27;;;;;;;;;;12479797;28;20044;-81
2022/05/07 02:21:59;;;;;;;4.83;4.33;;;;;;;;;;12463081;28;20057;-82
2022/05/07 02:28:01;;;;;;;4.97;4.47;;;;;;;;;;12496412;28;20040;-81
2022/05/07 02:34:04;;;;;;;4.85;4.07;;;;;;;;;;12479802;28;20053;-81
2022/05/07 02:40:06;;;;;;;5.55;4.47;;;;;;;;;;12480311;28;20026;-81
2022/05/07 02:46:10;;;;;;;3.95;3.55;;;;;;;;;;12480223;28;20042;-81
2022/05/07 02:52:14;;;;;;;4.32;3.55;;;;;;;;;;12464550;28;20033;-81
2022/05/07 02:58:16;;;;;;;5.03;4.63;;;;;;;;;;12480687;28;20025;-81
2022/05/07 03:04:19;;;;;;;4.80;4.38;;;;;;;;;;12479757;28;20292;-80
2022/05/07 03:10:21;;;;;;;5.63;4.73;;;;;;;;;;12480243;28;20041;-81
2022/05/07 03:16:22;;;;;;;6.03;5.43;;;;;;;;;;12497355;28;20049;-82
2022/05/07 03:22:24;;;;;;;6.70;5.97;;;;;;;;;;12496559;28;20045;-81
2022/05/07 03:28:31;;;;;;;5.20;4.75;;;;;;;;;;12463179;28;20402;-82
2022/05/07 03:34:33;;;;;;;6.68;6.05;;;;;;;;;;12480081;28;20025;-81
2022/05/07 03:40:36;;;;;;;7.00;5.30;;;;;;;;;;12486646;28;20470;-81
2022/05/07 03:46:38;;;;;;;7.03;6.32;;;;;;;;;;12485143;28;20049;-82
2022/05/07 03:59:02;;;;;;;6.00;5.45;;;;;;;;;;12483345;28;20053;-81
2022/05/07 04:05:30;;;;;;;7.30;6.60;;;;;;;;;;12496683;28;20069;-81
2022/05/07 04:11:41;;;;;;;5.72;5.15;;;;;;;;;;12483102;28;20493;-81
2022/05/07 04:17:43;;;;;;;7.73;7.07;;;;;;;;;;12500960;28;20066;-82
2022/05/07 04:23:45;;;;;;;8.57;7.55;;;;;;;;;;12482880;28;20277;-82
2022/05/07 04:29:47;;;;;;;10.70;9.20;;;;;;;;;;12466238;28;20060;-81
2022/05/07 04:35:54;;;;;;;7.40;6.68;;;;;;;;;;12482316;28;20414;-82
2022/05/07 04:41:58;;;;;;;10.98;8.75;;;;;;;;;;12483006;28;20040;-82
2022/05/07 04:48:09;;;;;;;11.68;10.57;;;;;;;;;;12466255;28;20056;-81
2022/05/07 04:54:12;;;;;;;;;;;;;;;;;;12481774;28;20037;-82
2022/05/07 05:00:15;;;;;;;12.82;11.50;;;;;;;;;;12481024;28;19919;-82
2022/05/07 05:06:31;;;;;;;11.57;10.35;;;;;;;;;;12481517;28;20509;-82
2022/05/07 05:12:38;;;;;;;15.68;14.07;;;;;;;;;;12465427;28;20030;-82
2022/05/07 05:18:41;;;;;;;12.90;11.43;;;;;;;;;;12481063;28;20056;-82
2022/05/07 05:24:45;;;;;;;14.95;13.35;;;;;;;;;;12479588;28;20041;-83
2022/05/07 05:30:51;;;;;;;14.07;12.57;;;;;;;;;;12463691;28;20033;-82
2022/05/07 05:36:54;;;;;;;13.38;11.98;;;;;;;;;;12484801;28;20048;-82
2022/05/07 05:42:58;;;;;;;17.02;15.32;;;;;;;;;;12485075;28;20044;-81
2022/05/07 05:49:01;;;;;;;14.73;13.07;;;;;;;;;;12469678;28;20049;-81
2022/05/07 05:55:04;;;;;;;11.85;10.68;;;;;;;;;;12469394;28;20042;-81
2022/05/07 06:01:06;;;;;;;15.88;14.27;;;;;;;;;;12501416;28;20040;-81
2022/05/07 06:07:11;;;;;;;14.70;12.95;;;;;;;;;;12502535;28;20037;-81
2022/05/07 06:13:16;;;;;;;13.85;12.55;;;;;;;;;;12468632;28;20037;-81
2022/05/07 06:19:26;;;;;;;15.07;13.52;;;;;;;;;;12467635;28;20060;-80
2022/05/07 06:31:50;;;;;;;26.17;23.30;;;;;;;;;;12476947;28;20478;-81
2022/05/07 06:37:53;;;;;;;17.05;15.27;;;;;;;;;;12476254;28;20041;-81
2022/05/07 06:43:58;;;;;;;16.48;13.98;;;;;;;;;;12460678;28;20022;-81
2022/05/07 06:50:05;;;;;;;19.33;17.30;;;;;;;;;;12479980;28;20054;-81
2022/05/07 06:56:07;;;;;;;14.15;12.73;;;;;;;;;;12460309;28;20406;-81
2022/05/07 07:02:09;;;;;;;13.33;12.13;;;;;;;;;;12480966;28;20033;-80
2022/05/07 07:08:12;;;;;;;11.85;10.75;;;;;;;;;;12502278;28;20038;-81
2022/05/07 07:14:14;;;;;;;11.65;10.55;;;;;;;;;;12488750;28;20033;-81
2022/05/07 07:20:16;;;;;;;12.67;11.50;;;;;;;;;;12510903;28;20061;-82
2022/05/07 07:26:19;;;;;;;10.25;9.20;;;;;;;;;;12516673;28;20060;-80
2022/05/07 07:32:20;;;;;;;13.37;12.07;;;;;;;;;;12500081;28;20034;-81
2022/05/07 07:38:23;;;;;;;8.63;7.82;;;;;;;;;;12504232;28;20036;-81
2022/05/07 07:44:26;;;;;;;8.23;7.47;;;;;;;;;;12503889;28;20052;-81
2022/05/07 07:50:31;;;;;;;6.43;5.93;;;;;;;;;;12502616;28;20088;-81
2022/05/07 07:56:33;;;;;;;5.50;5.10;;;;;;;;;;12500084;28;20383;-81
2022/05/07 08:02:34;;;;;;;6.40;5.23;;;;;;;;;;12494286;28;20037;-82
2022/05/07 08:14:56;;;;;;;4.32;3.92;;;;;;;;;;12512194;28;20037;-81
2022/05/07 08:20:58;;;;;;;5.60;5.07;;;;;;;;;;12511387;28;20057;-81
2022/05/07 08:27:00;;;;;;;4.07;3.77;;;;;;;;;;12512257;28;20053;-81
2022/05/07 08:33:02;;;;;;;3.65;3.13;;;;;;;;;;12512416;28;20467;-81
2022/05/07 08:39:03;;;;;;;4.10;3.70;;;;;;;;;;12491776;28;20037;-81
2022/05/07 08:45:05;;;;;;;3.33;2.93;;;;;;;;;;12510134;28;20413;-81
2022/05/07 08:51:07;;;;;;;3.67;3.38;;;;;;;;;;12505894;28;20033;-81
2022/05/07 08:57:09;;;;;;;3.85;3.50;;;;;;;;;;12491540;28;20025;-81
2022/05/07 09:03:14;;;;;;;3.88;3.53;;;;;;;;;;12490539;28;20044;-81
2022/05/07 09:09:17;;;;;;;3.58;3.28;;;;;;;;;;12504191;28;20045;-80
2022/05/07 09:15:19;;;;;;;5.73;5.23;;;;;;;;;;12487355;28;20037;-81
2022/05/07 09:21:26;;;;;;;4.73;4.33;;;;;;;;;;12485979;28;20060;-81
2022/05/07 09:27:27;;;;;;;6.57;5.97;;;;;;;;;;12483228;28;20041;-81
2022/05/07 09:33:33;;;;;;;4.90;4.40;;;;;;;;;;12464566;28;20034;-81
2022/05/07 09:39:35;;;;;;;4.75;4.32;;;;;;;;;;12480504;28;20625;-81
2022/05/07 09:45:38;;;;;;;9.20;8.25;;;;;;;;;;12462240;28;20065;-81
2022/05/07 09:51:40;;;;;;;7.18;6.45;;;;;;;;;;12478089;28;20048;-81
2022/05/07 09:57:42;;;;;;;;;;;;;;;;;;12478976;28;20030;-81
2022/05/07 10:03:47;;;;;;;7.40;6.70;;;;;;;;;;12461762;28;19909;-81
2022/05/07 10:10:07;;;;;;;6.63;5.57;;;;;;;;;;12495388;28;20494;-81
2022/05/07 10:16:20;;;;;;;5.30;4.80;;;;;;;;;;12494949;28;20033;-81
2022/05/07 10:22:25;;;;;;;6.47;5.88;;;;;;;;;;12478037;28;20462;-80
2022/05/07 10:28:38;;;;;;;6.32;5.80;;;;;;;;;;12497584;28;20056;-81
2022/05/07 10:34:40;;;;;;;;;;;;;;;;;;12481707;28;20033;-81
2022/05/07 10:40:51;;;;;;;7.00;6.40;;;;;;;;;;12479412;28;20309;-81
2022/05/07 10:46:53;;;;;;;7.28;6.57;;;;;;;;;;12505178;28;20049;-80
2022/05/07 10:52:55;;;;;;;7.10;6.50;;;;;;;;;;12492807;28;20497;-81
2022/05/07 10:58:57;;;;;;;6.65;6.05;;;;;;;;;;12472061;28;20145;-81
2022/05/07 11:04:59;;;;;;;6.03;5.50;;;;;;;;;;12504239;28;20041;-81
2022/05/07 11:11:07;;;;;;;5.50;5.00;;;;;;;;;;12486054;28;20033;-80
2022/05/07 11:17:10;;;;;;;5.18;4.68;;;;;;;;;;12485987;28;20041;-80
2022/05/07 11:23:13;;;;;;;3.92;3.63;;;;;;;;;;12503015;28;20033;-80
2022/05/07 11:29:15;;;;;;;5.80;5.30;;;;;;;;;;12485472;28;20129;-80
2022/05/07 11:35:16;;;;;;;6.60;6.00;;;;;;;;;;12502804;28;20378;-80
2022/05/07 11:41:23;;;;;;;5.70;5.20;;;;;;;;;;12484623;28;20401;-80
2022/05/07 11:47:25;;;;;;;5.55;4.95;;;;;;;;;;12502888;28;20498;-80
2022/05/07 11:53:30;;;;;;;5.78;5.20;;;;;;;;;;12484775;28;20075;-80
2022/05/07 11:59:42;;;;;;;5.75;5.15;;;;;;;;;;12467389;28;20490;-80
2022/05/07 12:05:44;;;;;;;4.40;4.03;;;;;;;;;;12469562;28;20042;-80
2022/05/07 12:11:46;;;;;;;6.07;5.53;;;;;;;;;;12485823;28;20042;-80
2022/05/07 12:17:55;;;;;;;4.73;4.20;;;;;;;;;;12485230;28;20057;-80
2022/05/07 12:30:18;;;;;;;3.03;2.72;;;;;;;;;;12501996;28;20048;-80
2022/05/07 12:36:21;;;;;;;3.00;2.65;;;;;;;;;;12483425;28;20040;-81
2022/05/07 12:42:23;;;;;;;3.08;2.78;;;;;;;;;;12482899;28;20052;-81
2022/05/07 12:48:25;;;;;;;2.60;2.40;;;;;;;;;;12500270;28;20041;-81
2022/05/07 12:54:27;;;;;;;2.83;2.63;;;;;;;;;;12481187;28;20026;-80
2022/05/07 13:00:29;;;;;;;2.50;2.30;;;;;;;;;;12480389;28;20044;-80
2022/05/07 13:06:31;;;;;;;3.08;2.50;;;;;;;;;;12497301;28;20045;-82
2022/05/07 13:12:32;;;;;;;2.92;2.08;;;;;;;;;;12482545;28;20037;-82
2022/05/07 13:18:35;;;;;;;1.75;1.63;;;;;;;;;;12465917;28;20064;-82
2022/05/07 13:24:36;;;;;;;3.03;2.50;;;;;;;;;;12481758;28;20036;-81
2022/05/07 13:30:38;;;;;;;1.75;1.65;;;;;;;;;;12463620;28;20047;-82
2022/05/07 13:36:41;;;;;;;1.92;1.40;;;;;;;;;;12497389;28;20417;-82
2022/05/07 13:42:43;;;;;;;1.80;1.40;;;;;;;;;;12482622;28;20030;-82
2022/05/07 13:48:44;;;;;;;1.25;1.15;;;;;;;;;;12498415;28;20084;-82
2022/05/07 13:54:46;;;;;;;1.83;1.73;;;;;;;;;;12496407;28;20036;-82
2022/05/07 14:00:48;;;;;;;1.90;1.80;;;;;;;;;;12478754;28;20052;-82
2022/05/07 14:06:50;;;;;;;1.50;1.40;;;;;;;;;;12462176;28;20041;-82
2022/05/07 14:12:51;;;;;;;1.65;1.55;;;;;;;;;;12478982;28;20040;-82
2022/05/07 14:18:53;;;;;;;1.70;1.60;;;;;;;;;;12479685;28;20410;-82
2022/05/07 14:24:55;;;;;;;1.60;1.50;;;;;;;;;;12482120;28;20414;-82
2022/05/07 14:30:58;;;;;;;1.40;1.20;;;;;;;;;;12477890;28;20299;-82
2022/05/07 14:36:59;;;;;;;1.17;1.05;;;;;;;;;;12496253;28;20402;-82
2022/05/07 14:43:01;;;;;;;1.65;1.55;;;;;;;;;;12478655;28;20025;-82
2022/05/07 14:49:04;;;;;;;1.58;1.45;;;;;;;;;;12497821;28;20049;-82
2022/05/07 14:55:05;;;;;;;1.05;1.05;;;;;;;;;;12496512;28;20041;-82
2022/05/07 15:01:10;;;;;;;0.98;0.98;;;;;;;;;;12495946;28;20037;-82
2022/05/07 15:07:12;;;;;;;2.28;1.50;;;;;;;;;;12480541;28;20037;-83
2022/05/07 15:13:14;;;;;;;1.17;1.07;;;;;;;;;;12467204;28;20048;-82
2022/05/07 15:19:16;;;;;;;1.92;1.83;;;;;;;;;;12504142;28;20303;-82
2022/05/07 15:25:18;;;;;;;1.30;1.20;;;;;;;;;;12467587;28;20056;-83
2022/05/07 15:31:20;;;;;;;1.30;1.20;;;;;;;;;;12474395;28;20642;-82
2022/05/07 15:37:22;;;;;;;1.20;1.13;;;;;;;;;;12479972;28;20038;-82
2022/05/07 15:43:24;;;;;;;1.35;1.25;;;;;;;;;;12513654;28;20033;-82
2022/05/07 15:49:26;;;;;;;1.50;1.40;;;;;;;;;;12495464;28;20053;-82
2022/05/07 15:55:29;;;;;;;1.40;1.30;;;;;;;;;;12479046;28;20025;-82
2022/05/07 16:01:31;;;;;;;1.65;1.55;;;;;;;;;;12507782;28;20036;-83
2022/05/07 16:07:33;;;;;;;1.50;1.05;;;;;;;;;;12488348;28;20037;-83
2022/05/07 16:13:34;;;;;;;2.43;2.10;;;;;;;;;;12504416;28;20033;-83
2022/05/07 16:19:39;;;;;;;1.77;1.67;;;;;;;;;;12466500;28;20053;-83
2022/05/07 16:25:41;;;;;;;2.22;2.03;;;;;;;;;;12482514;28;20060;-83
2022/05/07 16:31:43;;;;;;;2.17;2.08;;;;;;;;;;12499872;28;20033;-84
2022/05/07 16:37:45;;;;;;;2.65;2.45;;;;;;;;;;12499337;28;20489;-83
2022/05/07 16:43:47;;;;;;;4.00;3.70;;;;;;;;;;12499390;28;20029;-83
2022/05/07 16:49:48;;;;;;;3.80;3.50;;;;;;;;;;12482875;28;20486;-83
2022/05/07 16:55:50;;;;;;;3.50;3.20;;;;;;;;;;12499071;28;20478;-83
2022/05/07 17:01:52;;;;;;;2.47;2.27;;;;;;;;;;12480818;28;20030;-83
2022/05/07 17:07:56;;;;;;;2.00;1.90;;;;;;;;;;12480246;28;20041;-83
2022/05/07 17:13:58;;;;;;;2.53;2.33;;;;;;;;;;12497560;28;20040;-83
2022/05/07 17:19:59;;;;;;;2.47;2.27;;;;;;;;;;12480358;28;20099;-83
2022/05/07 17:26:01;;;;;;;1.87;1.77;;;;;;;;;;12497884;28;20041;-83
2022/05/07 17:32:03;;;;;;;2.00;1.90;;;;;;;;;;12496965;28;20025;-83
2022/05/07 17:38:05;;;;;;;1.65;1.55;;;;;;;;;;12510987;28;20044;-83
2022/05/07 17:44:07;;;;;;;2.33;2.22;;;;;;;;;;12494877;28;20021;-82
2022/05/07 17:50:13;;;;;;;2.60;2.40;;;;;;;;;;12509442;28;20509;-82
2022/05/07 17:56:15;;;;;;;2.42;2.33;;;;;;;;;;12471363;28;20033;-82
2022/05/07 18:02:17;;;;;;;2.60;2.40;;;;;;;;;;12496840;28;20470;-82
2022/05/07 18:08:20;;;;;;;2.35;2.15;;;;;;;;;;12502097;28;20053;-82
2022/05/07 18:14:23;;;;;;;3.63;3.08;;;;;;;;;;12481368;28;20033;-82
2022/05/07 18:20:27;;;;;;;4.95;3.88;;;;;;;;;;12499392;28;20053;-82
2022/05/07 18:26:28;;;;;;;5.47;4.32;;;;;;;;;;12501144;28;20045;-82
2022/05/07 18:32:30;;;;;;;2.77;2.57;;;;;;;;;;12466494;28;20041;-82
2022/05/07 18:44:52;;;;;;;2.67;2.47;;;;;;;;;;12494383;28;20044;-83
2022/05/07 18:50:55;;;;;;;2.83;2.53;;;;;;;;;;12492983;28;20149;-83
2022/05/07 19:03:18;;;;;;;4.90;4.25;;;;;;;;;;12477214;28;20037;-83
2022/05/07 19:09:19;;;;;;;3.60;3.17;;;;;;;;;;12471264;28;20045;-83
2022/05/07 19:15:21;;;;;;;2.47;2.20;;;;;;;;;;12503858;28;20351;-83
2022/05/07 19:21:24;;;;;;;2.60;2.40;;;;;;;;;;12469810;28;20057;-83
2022/05/07 19:27:32;;;;;;;2.85;2.65;;;;;;;;;;12484889;28;20397;-83
2022/05/07 19:33:35;;;;;;;3.03;2.72;;;;;;;;;;12484780;28;20026;-83
2022/05/07 19:39:37;;;;;;;3.00;2.80;;;;;;;;;;12502188;28;20421;-83
2022/05/07 19:45:39;;;;;;;3.90;3.60;;;;;;;;;;12486844;28;20037;-83
2022/05/07 19:51:40;;;;;;;3.47;2.80;;;;;;;;;;12484681;28;20032;-82
2022/05/07 19:57:43;;;;;;;3.10;2.77;;;;;;;;;;12483955;28;20397;-83
2022/05/07 20:03:45;;;;;;;2.30;2.10;;;;;;;;;;12484171;28;20052;-83
2022/05/07 20:09:46;;;;;;;2.63;2.43;;;;;;;;;;12500973;28;20494;-83
2022/05/07 20:15:48;;;;;;;2.90;2.70;;;;;;;;;;12482790;28;20034;-83
2022/05/07 20:21:51;;;;;;;3.17;2.87;;;;;;;;;;12468043;28;20045;-83
2022/05/07 20:27:55;;;;;;;2.90;2.60;;;;;;;;;;12482995;28;20045;-83
2022/05/07 20:33:57;;;;;;;4.18;3.78;;;;;;;;;;12483509;28;20478;-83
2022/05/07 20:39:59;;;;;;;3.03;2.70;;;;;;;;;;12501345;28;20042;-83
2022/05/07 20:52:24;;;;;;;3.58;3.28;;;;;;;;;;12499088;28;20040;-83
2022/05/07 20:58:25;;;;;;;3.17;2.87;;;;;;;;;;12498653;28;20033;-83
2022/05/07 21:04:28;;;;;;;3.20;2.90;;;;;;;;;;12498351;28;20045;-83
2022/05/07 21:10:30;;;;;;;2.50;2.30;;;;;;;;;;12500940;28;20044;-83
2022/05/07 21:16:36;;;;;;;2.40;2.20;;;;;;;;;;12465532;28;20068;-83
2022/05/07 21:22:38;;;;;;;4.57;4.18;;;;;;;;;;12487959;28;20045;-83
2022/05/07 21:28:40;;;;;;;3.73;3.43;;;;;;;;;;12480451;28;20263;-83
2022/05/07 21:34:42;;;;;;;;;;;;;;;;;;12502091;28;20025;-83
2022/05/07 21:40:43;;;;;;;3.40;3.10;;;;;;;;;;12469850;28;19916;-83
2022/05/07 21:46:45;;;;;;;3.13;2.83;;;;;;;;;;12468953;28;20053;-83
2022/05/07 21:52:49;;;;;;;3.20;2.80;;;;;;;;;;12502598;28;20037;-83
2022/05/07 21:58:52;;;;;;;3.30;3.00;;;;;;;;;;12483639;28;20041;-83
2022/05/07 22:04:54;;;;;;;3.23;2.93;;;;;;;;;;12483753;28;20033;-83
2022/05/07 22:10:56;;;;;;;3.33;2.97;;;;;;;;;;12483378;28;20045;-83
2022/05/07 22:16:57;;;;;;;3.03;2.83;;;;;;;;;;12501348;28;20042;-83
2022/05/07 22:23:00;;;;;;;2.87;2.60;;;;;;;;;;12481732;28;20048;-83
2022/05/07 22:29:02;;;;;;;3.17;2.97;;;;;;;;;;12480265;28;20044;-83
2022/05/07 22:35:04;;;;;;;3.67;3.37;;;;;;;;;;12478253;28;20038;-82
2022/05/07 22:41:06;;;;;;;3.33;3.03;;;;;;;;;;12500273;28;20029;-83
2022/05/07 22:47:08;;;;;;;3.63;3.33;;;;;;;;;;12488655;28;20057;-83
2022/05/07 22:53:09;;;;;;;3.57;3.23;;;;;;;;;;12471104;28;20033;-83
2022/05/07 22:59:11;;;;;;;3.03;2.77;;;;;;;;;;12488300;28;20790;-83
2022/05/07 23:05:13;;;;;;;2.87;2.63;;;;;;;;;;12486798;28;20056;-83
2022/05/07 23:11:15;;;;;;;3.05;2.75;;;;;;;;;;12505033;28;20048;-83
2022/05/07 23:17:17;;;;;;;4.07;3.70;;;;;;;;;;12471051;28;20045;-82
2022/05/07 23:23:19;;;;;;;3.42;3.13;;;;;;;;;;12488238;28;20402;-83
2022/05/07 23:29:21;;;;;;;3.13;2.93;;;;;;;;;;12488538;28;20038;-83
2022/05/07 23:35:22;;;;;;;3.93;3.63;;;;;;;;;;12486930;28;20029;-83
2022/05/07 23:41:24;;;;;;;1.57;1.47;;;;;;;;;;12473546;28;20064;-83
2022/05/07 23:47:26;;;;;;;4.30;3.93;;;;;;;;;;12505743;28;20486;-82
2022/05/07 23:53:27;;;;;;;3.30;3.00;;;;;;;;;;12485263;28;20033;-82
2022/05/07 23:59:29;;;;;;;2.63;2.40;;;;;;;;;;12469559;28;20086;-82
